Idre Storbo, Sweden

8:35 AM CEST on July 29, 2015 (GMT +0200)
Tjonnodden, 2446 Elga, Engedal, Norway | | Change Station
CLOSE
Current Station
Personal Weather Station
Location: Hedmark, HEDMARK
Elevation: 2218 ft
Nearby Weather Stations

Elev 2218 ft 62.16 °N, 11.90 °E | Updated 20 seconds ago

Light Drizzle
Light Drizzle
50.5 °F
Feels Like 50.5 °F
N
0.0
Wind Variable Wind from WSW
Gusts 0.0 mph

Today
High -- | Low -- °F
--% Chance of Precip.
Yesterday
High -- | Low -- °F
Precip. -- in
4:28 AM 10:03 PM
Waxing Gibbous, 94% visible
Pressure 29.59 in
Visibility 6.2 miles
Clouds Few 400 ft
Mostly Cloudy 1200 ft
Dew Point 50 °F
Humidity 98%
Rainfall 0.07 in
Snow Depth Not available.
UV 1.0 out of 12
Pollen Not available.
Air Quality Not available.
Flu Activity Not available.
METAR ENRO 290620Z 33003KT 9999 -DZ FEW004 BKN012 10/10 Q1002

More Conditions Fewer Conditions

Pressure 29.59 in
Visibility 6.2 miles
Clouds Few 400 ft
Mostly Cloudy 1200 ft
Dew Point 50 °F
Humidity 98%
Rainfall 0.07 in
Snow Depth Not available.
UV 1.0 out of 12
Pollen Not available.
Air Quality Not available.
Flu Activity Not available.
METAR ENRO 290620Z 33003KT 9999 -DZ FEW004 BKN012 10/10 Q1002

More Conditions Fewer Conditions

10-Day Weather Forecast

×

Almanac

Astronomy

Jul. 29, 2015 Rise Set
Actual Time
Civil Twilight
Nautical Twilight
Astronomical Twilight
Moon
Length of Visible Light
Length of Day
Tomorrow will be .
, % of the Moon is Illuminated

Today's Extremes

Country Highs Country Lows

Community

WunderPhotos

Upload Photos

1,842,061 photos uploaded!

WunderBlogs® & News

Nearby

Air Quality

  Air Quality AQ Index Pollutant
Not available.

Snow Depth

Station Depth Elevation

Earthquake Activity

City Distance Mag. Time & Date
Minimum magnitude displayed is 2.5.

Coastal Water Temperatures

Place Temperature

Stations

Nearby Weather Stations

Station Location Temp. Windchill Dew Point Humidity Wind Precip. Elev Updated Type